Hingham, Montana
Current Conditions -  °F | °C
As of 6:53 AM on Wednesday 28 Jan 2015 (Local Time) from KHVR Reporting Station
Haze Haze  
Wind Chill: 23°   Ceiling: Unl
Heat Index: 33°   Visibility: 6mi
Dew Point: 30°   Wind: 14mph
Humidity: 89%   Direction: 300°WNW
Pressure: 30.06"   Gusts: NA
Location:  48.55°N, 110.42°W
Report Text: KHVR 281353Z AUTO 30012KT 6SM BR CLR 01/M01 A3006 RMK AO2 SLP199 T00061011
Loading
Personal Weather Stations






























Interactive Weather Map New forecast layout! Learn more

10-Day Weather Forecast

Advertisements
Track Severe Weather on mobile